Time;durP1;ratioP1;P1;durP2;ratioP2;P2;SDS_P1;SDS_P2;PMS_P1;PMS_P2;Temp;Humidity;BMP_temperature;BMP_pressure;BME280_temperature;BME280_humidity;BME280_pressure;Samples;Min_cycle;Max_cycle;Signal;HPM_P1;HPM_P2
2022/01/19 00:00:53;;;;;;;2.47;1.20;;;;;;;-4.61;100.00;100085.34;4896779;29;20064;-63
2022/01/19 00:03:38;;;;;;;3.53;1.20;;;;;;;-4.46;100.00;100082.56;4878793;29;20055;-55
2022/01/19 00:06:25;;;;;;;2.45;1.17;;;;;;;-4.40;100.00;100083.69;4889552;29;20558;-56
2022/01/19 00:09:10;;;;;;;2.08;1.20;;;;;;;-4.58;100.00;100080.31;4879740;29;20181;-57
2022/01/19 00:11:55;;;;;;;3.88;1.40;;;;;;;-4.69;100.00;100078.97;4862845;29;20077;-53
2022/01/19 00:14:39;;;;;;;;;;;;;;;-4.50;100.00;100071.19;4874132;29;20056;-62
2022/01/19 00:17:24;;;;;;;2.55;1.42;;;;;;;-4.54;100.00;100078.75;4889797;29;19932;-56
2022/01/19 00:20:10;;;;;;;3.08;1.60;;;;;;;-4.36;100.00;100074.38;4889823;29;20480;-63
2022/01/19 00:22:55;;;;;;;3.90;1.13;;;;;;;-4.11;100.00;100077.19;4874470;29;20071;-58
2022/01/19 00:25:40;;;;;;;5.25;1.50;;;;;;;-4.32;100.00;100071.97;4885922;29;20064;-62
2022/01/19 00:28:25;;;;;;;3.70;1.50;;;;;;;-4.29;100.00;100060.88;4871915;29;20043;-52
2022/01/19 00:31:10;;;;;;;3.97;1.58;;;;;;;-4.33;100.00;100061.56;4886423;29;20082;-57
2022/01/19 00:33:54;;;;;;;3.35;1.55;;;;;;;-4.23;100.00;100081.84;4887220;29;20124;-52
2022/01/19 00:36:39;;;;;;;4.13;1.40;;;;;;;-4.08;100.00;100077.31;4884725;29;20059;-61
2022/01/19 00:39:29;;;;;;;3.25;1.30;;;;;;;-4.03;100.00;100076.69;4888371;29;20547;-64
2022/01/19 00:42:14;;;;;;;5.72;1.73;;;;;;;-3.92;100.00;100064.19;4872704;29;20087;-52
2022/01/19 00:44:59;;;;;;;2.90;1.33;;;;;;;-3.94;100.00;100058.94;4889474;29;20055;-56
2022/01/19 00:47:44;;;;;;;3.20;1.48;;;;;;;-3.83;100.00;100070.66;4888549;29;20578;-57
2022/01/19 00:50:30;;;;;;;2.22;1.20;;;;;;;-3.85;100.00;100071.38;4887568;29;20055;-57
2022/01/19 00:53:15;;;;;;;2.90;1.50;;;;;;;-4.08;100.00;100061.78;4886086;29;20063;-62
2022/01/19 00:56:00;;;;;;;5.22;1.77;;;;;;;-3.97;100.00;100068.28;4888486;29;20469;-52
2022/01/19 00:58:44;;;;;;;3.85;1.73;;;;;;;-3.85;100.00;100071.38;4887477;29;20067;-51
2022/01/19 01:01:29;;;;;;;3.03;1.50;;;;;;;-3.75;100.00;100064.06;4892043;29;20112;-51
2022/01/19 01:04:14;;;;;;;4.40;1.83;;;;;;;-3.60;100.00;100056.88;4889044;29;20652;-51
2022/01/19 01:07:00;;;;;;;4.40;1.63;;;;;;;-3.68;100.00;100054.84;4874237;29;20243;-56
2022/01/19 01:09:45;;;;;;;4.15;1.33;;;;;;;-3.73;100.00;100041.69;4888505;29;20634;-51
2022/01/19 01:12:43;;;;;;;4.00;1.50;;;;;;;-3.57;100.00;100045.78;4887164;29;20143;-61
2022/01/19 01:18:19;;;;;;;3.20;1.60;;;;;;;-3.61;100.00;100057.72;4886904;29;20131;-55
2022/01/19 01:21:06;;;;;;;4.47;1.75;;;;;;;-3.49;100.00;100054.75;4874239;29;20536;-62
2022/01/19 01:23:50;;;;;;;5.90;1.85;;;;;;;-3.86;100.00;100052.38;4887547;29;20104;-58
2022/01/19 01:26:36;;;;;;;4.75;1.70;;;;;;;-3.78;100.00;100037.13;4880474;29;20052;-55
2022/01/19 01:29:21;;;;;;;2.90;1.42;;;;;;;-3.63;100.00;100051.59;4873365;29;20060;-52
2022/01/19 01:32:06;;;;;;;4.68;1.55;;;;;;;-3.71;100.00;100039.16;4889806;29;20048;-57
2022/01/19 01:34:53;;;;;;;3.55;2.05;;;;;;;-3.88;100.00;100038.47;4878923;29;20584;-58
2022/01/19 01:37:37;;;;;;;5.10;1.73;;;;;;;-3.80;100.00;100041.38;4873393;29;20133;-56
2022/01/19 01:40:25;;;;;;;3.15;1.83;;;;;;;-4.07;100.00;100050.59;4870380;29;20063;-56
2022/01/19 01:43:10;;;;;;;2.97;1.60;;;;;;;-4.04;100.00;100051.59;4890680;29;20100;-60
2022/01/19 01:46:01;;;;;;;9.73;1.88;;;;;;;-4.27;100.00;100028.19;4876420;29;20062;-54
2022/01/19 01:48:47;;;;;;;4.40;1.40;;;;;;;-4.10;100.00;100048.78;4884047;29;20052;-62
2022/01/19 01:54:35;;;;;;;5.05;1.83;;;;;;;-4.05;100.00;100055.03;4887801;29;20116;-55
2022/01/19 01:57:20;;;;;;;;;;;;;;;-4.09;100.00;100042.78;4882958;29;20119;-60
2022/01/19 02:00:12;;;;;;;2.58;1.45;;;;;;;-4.24;100.00;100046.44;4890287;29;20019;-55
2022/01/19 02:03:12;;;;;;;3.05;1.75;;;;;;;-4.36;100.00;100045.94;4888510;29;20052;-59
2022/01/19 02:08:53;;;;;;;4.13;1.40;;;;;;;-4.26;100.00;100066.19;4874997;29;20051;-55
2022/01/19 02:23:54;;;;;;;4.45;1.40;;;;;;;-4.63;100.00;100063.69;4889382;29;20111;-56
2022/01/19 02:28:58;;;;;;;2.38;1.73;;;;;;;-4.57;100.00;100056.22;4884935;29;20201;-59
2022/01/19 02:42:16;;;;;;;3.72;1.63;;;;;;;-4.48;100.00;100066.97;4894681;29;20107;-55
2022/01/19 02:50:53;;;;;;;5.53;1.90;;;;;;;-4.30;100.00;100101.41;4907788;29;20481;-64
2022/01/19 02:53:40;;;;;;;;;;;;;;;-4.24;100.00;100091.31;4885182;29;20078;-57
2022/01/19 02:56:31;;;;;;;4.18;1.90;;;;;;;-4.25;100.00;100092.13;4902020;29;19930;-58
2022/01/19 02:59:31;;;;;;;5.55;2.30;;;;;;;-4.16;100.00;100089.06;4883039;29;20063;-59
2022/01/19 03:08:47;;;;;;;9.38;2.10;;;;;;;-4.09;100.00;100098.84;4897637;29;20001;-55
2022/01/19 03:11:36;;;;;;;3.22;1.50;;;;;;;-4.13;100.00;100092.66;4877678;29;20064;-57
2022/01/19 03:14:22;;;;;;;3.63;1.55;;;;;;;-4.41;100.00;100096.56;4880297;29;20056;-63
2022/01/19 03:17:12;;;;;;;5.68;1.88;;;;;;;-4.60;100.00;100089.72;4888185;29;20079;-66
2022/01/19 03:19:57;;;;;;;4.03;1.75;;;;;;;-4.51;100.00;100091.81;4879045;29;20103;-66
2022/01/19 03:22:54;;;;;;;3.53;1.70;;;;;;;-4.57;100.00;100079.50;4874640;29;20136;-69
2022/01/19 03:25:41;;;;;;;9.23;2.35;;;;;;;-4.53;100.00;100083.09;4877957;29;20104;-65
2022/01/19 03:28:27;;;;;;;4.75;2.28;;;;;;;-4.55;100.00;100083.03;4878418;29;20075;-61
2022/01/19 03:31:12;;;;;;;8.50;2.22;;;;;;;-4.57;100.00;100079.50;4904824;29;20603;-62
2022/01/19 03:33:59;;;;;;;3.88;2.08;;;;;;;-4.28;100.00;100086.81;4882105;29;20170;-58
2022/01/19 03:36:45;;;;;;;4.90;2.25;;;;;;;-4.22;100.00;100068.09;4876303;29;20056;-54
2022/01/19 03:39:33;;;;;;;3.92;1.80;;;;;;;-4.01;100.00;100072.47;4874394;29;20063;-56
2022/01/19 03:42:19;;;;;;;4.68;2.22;;;;;;;-4.18;100.00;100076.06;4859480;29;20532;-50
2022/01/19 03:45:07;;;;;;;3.75;1.85;;;;;;;-4.27;100.00;100088.59;4880901;29;20056;-55
2022/01/19 03:48:14;;;;;;;5.70;2.22;;;;;;;-4.32;100.00;100081.47;4886932;29;20809;-56
2022/01/19 03:51:00;;;;;;;3.70;2.15;;;;;;;-4.41;100.00;100087.13;4873929;29;20068;-56
2022/01/19 03:53:46;;;;;;;5.07;2.22;;;;;;;-4.34;100.00;100083.09;4879485;29;20059;-56
2022/01/19 03:56:31;;;;;;;6.63;2.15;;;;;;;-4.35;100.00;100077.03;4871613;29;20067;-57
2022/01/19 03:59:17;;;;;;;6.22;2.55;;;;;;;-4.38;100.00;100079.50;4890008;29;20075;-61
2022/01/19 04:02:03;;;;;;;5.38;2.10;;;;;;;-4.22;100.00;100094.84;4892209;29;20048;-58
2022/01/19 04:05:24;;;;;;;4.47;2.45;;;;;;;-4.50;100.00;100091.00;4871711;29;20586;-56
2022/01/19 04:08:01;;;;;;;10.15;2.28;;;;;;;-4.27;100.00;100104.13;4876736;29;20837;-58
2022/01/19 04:10:49;;;;;;;6.70;2.15;;;;;;;-4.23;100.00;100105.13;4875665;29;20122;-67
2022/01/19 04:13:57;;;;;;;5.03;2.22;;;;;;;-4.06;100.00;100101.56;4881252;29;20308;-60
2022/01/19 04:16:38;;;;;;;4.47;2.42;;;;;;;-4.12;100.00;100112.53;4872814;29;20051;-58
2022/01/19 04:19:30;;;;;;;5.97;2.38;;;;;;;-4.05;100.00;100122.34;4873646;29;20048;-58
2022/01/19 04:22:37;;;;;;;7.20;2.80;;;;;;;-3.93;100.00;100117.69;4889137;29;20184;-57
2022/01/19 04:25:24;;;;;;;6.13;2.75;;;;;;;-4.11;100.00;100108.25;4862700;29;20505;-58
2022/01/19 04:28:10;;;;;;;6.78;2.88;;;;;;;-4.17;100.00;100108.88;4873523;29;20052;-63
2022/01/19 04:30:59;;;;;;;4.95;2.30;;;;;;;-4.44;100.00;100114.56;4879735;29;20136;-53
2022/01/19 04:33:45;;;;;;;3.53;2.30;;;;;;;-4.44;100.00;100107.66;4888389;29;20543;-62
2022/01/19 04:37:09;;;;;;;5.75;2.55;;;;;;;-4.64;100.00;100092.09;4872209;29;20597;-59
2022/01/19 05:13:35;;;;;;;7.75;3.00;;;;;;;-4.77;100.00;100106.19;4873864;29;20488;-56
2022/01/19 05:16:22;;;;;;;7.97;3.13;;;;;;;-4.75;100.00;100104.53;4868351;29;20072;-71
2022/01/19 05:19:08;;;;;;;6.70;2.70;;;;;;;-4.95;100.00;100110.50;4877143;29;20051;-59
2022/01/19 05:21:55;;;;;;;6.53;2.95;;;;;;;-4.98;100.00;100106.06;4886826;29;20214;-57
2022/01/19 05:25:00;;;;;;;10.35;4.82;;;;;;;-5.30;100.00;100095.09;4884899;29;20051;-55
2022/01/19 05:27:49;;;;;;;11.43;5.15;;;;;;;-5.40;100.00;100095.44;4884994;29;20052;-59
2022/01/19 05:30:34;;;;;;;10.43;4.43;;;;;;;-5.47;100.00;100070.13;4885682;29;20051;-59
2022/01/19 05:33:21;;;;;;;11.70;4.43;;;;;;;-5.22;100.00;100083.41;4881935;29;20578;-64
2022/01/19 05:36:06;;;;;;;12.07;5.32;;;;;;;-5.32;100.00;100052.78;4886233;29;20063;-61
2022/01/19 05:39:07;;;;;;;13.40;5.15;;;;;;;-5.25;100.00;100062.59;4884582;29;20111;-56
2022/01/19 05:42:16;;;;;;;12.48;5.13;;;;;;;-5.29;100.00;100071.00;4881537;29;20143;-59
2022/01/19 05:45:05;;;;;;;14.25;5.80;;;;;;;-5.23;100.00;100082.50;4886342;29;20104;-60
2022/01/19 05:47:50;;;;;;;16.42;6.45;;;;;;;-5.02;100.00;100086.06;4875394;29;20055;-58
2022/01/19 05:50:36;;;;;;;15.40;6.03;;;;;;;-5.03;100.00;100086.91;4884576;29;20663;-58
2022/01/19 05:53:26;;;;;;;13.98;6.72;;;;;;;-5.07;100.00;100077.22;4888564;29;20058;-61
2022/01/19 05:56:12;;;;;;;13.25;5.55;;;;;;;-5.18;100.00;100075.84;4873348;29;20552;-60
2022/01/19 05:59:08;;;;;;;16.40;7.28;;;;;;;-5.14;100.00;100082.06;4886071;29;20043;-58
2022/01/19 06:01:55;;;;;;;16.52;7.53;;;;;;;-5.17;100.00;100084.50;4887143;29;20060;-56
2022/01/19 06:04:40;;;;;;;20.35;7.13;;;;;;;-4.96;100.00;100085.47;4886709;29;20042;-55
2022/01/19 06:07:28;;;;;;;21.33;7.10;;;;;;;-5.01;100.00;100084.38;4888293;29;20052;-63
2022/01/19 06:13:26;;;;;;;19.98;7.60;;;;;;;-4.93;100.00;100070.09;4885827;29;20068;-57
2022/01/19 06:16:11;;;;;;;15.10;6.72;;;;;;;-4.86;100.00;100067.00;4872968;29;20767;-68
2022/01/19 06:18:56;;;;;;;13.40;6.85;;;;;;;-5.18;100.00;100070.69;4884547;29;20536;-52
2022/01/19 06:21:41;;;;;;;18.05;6.70;;;;;;;-5.42;100.00;100073.84;4869775;29;20542;-55
2022/01/19 06:24:27;;;;;;;17.23;7.15;;;;;;;-5.50;100.00;100065.72;4884114;29;20101;-54
2022/01/19 06:27:12;;;;;;;13.77;5.53;;;;;;;-5.46;100.00;100074.50;4887838;29;20056;-57
2022/01/19 06:29:57;;;;;;;;;;;;;;;-5.39;100.00;100073.97;4881919;29;20585;-58
2022/01/19 06:32:42;;;;;;;9.93;4.25;;;;;;;-5.61;100.00;100076.34;4888518;29;19991;-62
2022/01/19 06:35:27;;;;;;;;;;;;;;;-5.67;100.00;100074.38;4886951;29;20096;-63
2022/01/19 06:38:44;;;;;;;11.15;5.38;;;;;;;-5.69;100.00;100070.81;4872209;29;20321;-55
2022/01/19 06:41:41;;;;;;;12.77;4.65;;;;;;;-5.65;100.00;100071.84;4862282;29;20059;-55
2022/01/19 06:44:26;;;;;;;12.70;5.68;;;;;;;-5.75;100.00;100072.22;4888060;29;20129;-60
2022/01/19 06:47:10;;;;;;;;;;;;;;;-6.00;100.00;100072.78;4886866;29;20418;-64
2022/01/19 06:49:56;;;;;;;13.13;5.90;;;;;;;-5.77;100.00;100073.84;4875980;29;19930;-61
2022/01/19 06:52:50;;;;;;;12.35;5.88;;;;;;;-5.77;100.00;100073.84;4887967;29;20147;-54
2022/01/19 06:55:36;;;;;;;12.80;6.00;;;;;;;-5.56;100.00;100068.03;4874829;29;20115;-53
2022/01/19 06:58:22;;;;;;;12.13;5.93;;;;;;;-5.55;100.00;100067.19;4888152;29;20144;-56
2022/01/19 07:01:21;;;;;;;13.05;6.15;;;;;;;-5.37;100.00;100074.94;4889319;29;20043;-56
2022/01/19 07:04:17;;;;;;;16.75;9.02;;;;;;;-5.50;100.00;100064.84;4885307;29;20108;-62
2022/01/19 07:07:03;;;;;;;18.13;8.48;;;;;;;-5.55;100.00;100074.06;4876273;29;20081;-53
2022/01/19 07:09:57;;;;;;;17.92;7.95;;;;;;;-5.46;100.00;100067.63;4888835;29;20434;-52
2022/01/19 07:12:42;;;;;;;;;;;;;;;-5.28;100.00;100080.53;4870396;29;20085;-53
2022/01/19 07:15:28;;;;;;;;;;;;;;;-5.39;100.00;100080.03;4890128;29;19945;-61
2022/01/19 07:18:13;;;;;;;20.02;8.02;;;;;;;-5.44;100.00;100070.28;4886912;29;19929;-66
2022/01/19 07:20:59;;;;;;;20.17;8.73;;;;;;;-5.46;100.00;100077.97;4887972;29;20055;-62
2022/01/19 07:24:02;;;;;;;15.45;7.47;;;;;;;-5.42;100.00;100072.13;4889248;29;20055;-58
2022/01/19 07:26:48;;;;;;;15.25;6.95;;;;;;;-5.89;100.00;100066.41;4889836;29;20109;-57
2022/01/19 07:29:35;;;;;;;14.80;7.65;;;;;;;-6.05;100.00;100053.56;4875113;29;20102;-56
2022/01/19 07:32:22;;;;;;;18.83;6.55;;;;;;;-5.88;100.00;100062.16;4889420;29;20062;-56
2022/01/19 07:35:11;;;;;;;19.00;8.10;;;;;;;-5.76;100.00;100057.53;4903767;29;20425;-57
2022/01/19 07:37:57;;;;;;;18.20;7.90;;;;;;;-5.59;100.00;100070.44;4877145;29;20413;-56
2022/01/19 07:40:43;;;;;;;14.68;7.68;;;;;;;-5.29;100.00;100061.53;4874656;29;20066;-60
2022/01/19 07:43:28;;;;;;;20.38;7.65;;;;;;;-5.32;100.00;100052.78;4888477;29;20056;-64
2022/01/19 07:46:32;;;;;;;17.00;6.45;;;;;;;-5.40;100.00;100056.69;4888698;29;20517;-56
2022/01/19 07:49:50;;;;;;;16.98;7.72;;;;;;;-5.46;100.00;100051.25;4857824;29;20052;-56
2022/01/19 07:52:40;;;;;;;18.63;7.53;;;;;;;-5.33;100.00;100038.97;4871441;29;20043;-56
2022/01/19 07:55:47;;;;;;;;;;;;;;;-5.11;100.00;100052.06;4827064;29;20573;-59
2022/01/19 07:58:59;;;;;;;21.48;8.98;;;;;;;-5.22;100.00;100039.47;4820202;29;20412;-56
2022/01/19 08:02:01;;;;;;;18.33;9.05;;;;;;;-5.06;100.00;100037.63;4805955;29;20077;-64
2022/01/19 08:05:00;;;;;;;19.88;9.20;;;;;;;-3.08;100.00;100026.09;4828604;29;20125;-58
2022/01/19 08:07:48;;;;;;;13.05;7.60;;;;;;;-1.82;100.00;100030.63;4828776;29;20151;-55
2022/01/19 08:10:32;;;;;;;16.63;7.65;;;;;;;-0.78;100.00;100024.34;4808213;29;20617;-62
2022/01/19 08:13:18;;;;;;;14.73;7.72;;;;;;;0.23;100.00;100014.91;4821495;29;20097;-58
2022/01/19 08:16:05;;;;;;;16.40;7.63;;;;;;;1.23;100.00;100012.84;4831861;29;20056;-62
2022/01/19 08:18:49;;;;;;;18.25;7.95;;;;;;;1.96;100.00;100014.31;4820938;29;20069;-62
2022/01/19 08:21:37;;;;;;;11.57;6.60;;;;;;;3.50;100.00;100017.50;4812105;29;20052;-53
2022/01/19 08:24:22;;;;;;;15.25;7.20;;;;;;;3.88;100.00;100019.66;4824663;29;20101;-60
2022/01/19 08:27:10;;;;;;;13.73;7.20;;;;;;;3.93;99.77;100022.34;4828207;29;20056;-57
2022/01/19 08:30:09;;;;;;;12.77;6.38;;;;;;;4.15;90.25;100026.94;4840570;29;20057;-58
2022/01/19 08:32:56;;;;;;;12.07;6.05;;;;;;;4.09;84.98;100019.03;4838137;29;20059;-58
2022/01/19 08:35:51;;;;;;;13.43;7.45;;;;;;;4.43;81.45;100014.06;4863671;29;20132;-58
2022/01/19 08:39:00;;;;;;;12.13;6.72;;;;;;;4.88;85.41;100018.78;4898237;29;20111;-59
2022/01/19 08:41:52;;;;;;;13.30;7.18;;;;;;;5.81;80.95;100021.03;4889073;29;20108;-54
2022/01/19 08:44:39;;;;;;;10.90;6.78;;;;;;;5.76;77.32;100025.34;4890459;29;20547;-55
2022/01/19 08:47:38;;;;;;;12.32;6.43;;;;;;;5.45;79.16;100021.72;4891384;29;20058;-61
2022/01/19 08:50:28;;;;;;;11.25;6.75;;;;;;;6.58;93.84;100017.63;4904426;29;20588;-53
2022/01/19 08:53:40;;;;;;;16.17;5.85;;;;;;;6.94;94.20;100016.69;4870543;29;20095;-67
2022/01/19 08:57:01;;;;;;;12.43;6.13;;;;;;;6.07;94.14;100024.59;4803278;29;20056;-68
2022/01/19 08:59:48;;;;;;;12.80;6.10;;;;;;;6.28;93.92;100017.59;4814319;29;20474;-66
2022/01/19 09:02:33;;;;;;;12.90;5.65;;;;;;;6.62;81.95;100015.84;4828816;29;20103;-58
2022/01/19 09:05:17;;;;;;;12.15;5.93;;;;;;;7.45;88.79;100012.19;4826655;29;20056;-67
2022/01/19 09:08:05;;;;;;;10.73;5.85;;;;;;;6.85;80.07;100014.94;4815228;29;20061;-58
2022/01/19 09:10:57;;;;;;;11.38;5.78;;;;;;;6.52;74.24;100004.44;4833205;29;20748;-59
2022/01/19 09:13:45;;;;;;;10.20;5.05;;;;;;;6.39;73.11;99993.91;4828838;29;20086;-56
2022/01/19 09:16:32;;;;;;;10.75;6.03;;;;;;;6.78;71.17;99996.53;4807650;29;20559;-59
2022/01/19 09:19:20;;;;;;;11.55;6.25;;;;;;;6.49;69.24;99995.66;4789226;29;20302;-55
2022/01/19 09:22:09;;;;;;;9.18;5.28;;;;;;;6.83;70.86;99995.63;4811198;29;20053;-57
2022/01/19 09:24:54;;;;;;;12.57;6.43;;;;;;;7.46;66.87;99987.53;4797118;29;20053;-59
2022/01/19 09:27:41;;;;;;;9.07;5.40;;;;;;;7.18;62.88;99985.91;4799640;29;20443;-51
2022/01/19 09:30:27;;;;;;;9.20;5.63;;;;;;;6.58;68.01;99975.47;4831441;29;20084;-55
2022/01/19 09:33:20;;;;;;;10.38;5.40;;;;;;;5.32;69.58;99976.97;4871824;29;20212;-58
2022/01/19 09:36:28;;;;;;;7.50;5.00;;;;;;;4.17;70.16;99976.25;4883809;29;20105;-64
2022/01/19 09:39:14;;;;;;;9.38;5.60;;;;;;;4.78;73.12;99981.06;4878464;29;20062;-55
2022/01/19 09:42:00;;;;;;;9.43;5.85;;;;;;;5.13;74.41;99972.53;4879504;29;20439;-60
2022/01/19 09:44:45;;;;;;;9.68;5.05;;;;;;;5.93;67.58;99974.56;4883842;29;20147;-63
2022/01/19 09:47:32;;;;;;;7.45;4.63;;;;;;;4.93;69.92;99972.41;4882362;29;20052;-55
2022/01/19 09:50:17;;;;;;;7.78;4.80;;;;;;;5.30;69.47;99982.22;4888101;29;20076;-58
2022/01/19 09:53:04;;;;;;;7.13;4.38;;;;;;;4.93;69.84;99972.41;4878459;29;20101;-57
2022/01/19 09:55:51;;;;;;;9.43;4.53;;;;;;;5.22;69.11;99983.94;4876201;29;20189;-55
2022/01/19 09:58:36;;;;;;;8.98;4.78;;;;;;;4.22;70.15;99978.91;4871355;29;20051;-63
2022/01/19 10:01:24;;;;;;;8.23;4.30;;;;;;;4.30;74.48;99974.59;4878643;29;20193;-57
2022/01/19 10:04:21;;;;;;;6.70;3.72;;;;;;;3.94;75.80;99975.16;4884554;29;20083;-56
2022/01/19 10:07:16;;;;;;;7.45;4.20;;;;;;;3.64;76.44;99987.09;4890015;29;20052;-63
2022/01/19 10:10:08;;;;;;;7.73;3.80;;;;;;;3.90;78.60;99983.88;4886364;29;20566;-56
2022/01/19 10:19:17;;;;;;;7.72;3.67;;;;;;;3.72;77.02;99993.28;4884509;29;20055;-55
2022/01/19 10:22:13;;;;;;;8.55;4.13;;;;;;;4.12;74.15;99988.44;4876668;29;20539;-64
2022/01/19 10:25:03;;;;;;;7.57;4.13;;;;;;;4.44;71.15;99986.94;4887286;29;20580;-52
2022/01/19 10:27:49;;;;;;;8.77;4.72;;;;;;;5.12;70.29;99989.13;4892651;29;20056;-60
2022/01/19 10:30:35;;;;;;;5.18;3.17;;;;;;;4.47;69.35;99991.34;4888374;29;20047;-62
2022/01/19 10:33:22;;;;;;;7.18;4.15;;;;;;;4.49;71.21;99979.13;4890792;29;20096;-58
2022/01/19 10:36:07;;;;;;;5.15;3.53;;;;;;;4.73;70.22;99960.91;4885430;29;20076;-55
2022/01/19 10:38:57;;;;;;;7.13;4.40;;;;;;;4.97;69.34;99979.44;4886470;29;20051;-55
2022/01/19 10:42:00;;;;;;;6.63;3.28;;;;;;;5.38;67.64;99977.00;4888786;29;20139;-54
2022/01/19 10:44:51;;;;;;;7.50;3.90;;;;;;;4.28;68.86;99976.34;4876929;29;20063;-56
2022/01/19 10:47:56;;;;;;;8.90;3.40;;;;;;;4.49;72.54;99977.38;4888504;29;20495;-54
2022/01/19 10:50:44;;;;;;;7.85;3.70;;;;;;;3.94;72.54;99966.41;4873784;29;20114;-57
2022/01/19 10:53:30;;;;;;;6.32;3.47;;;;;;;3.11;74.26;99964.59;4886820;29;20067;-55
2022/01/19 10:56:29;;;;;;;7.90;3.05;;;;;;;2.22;79.74;99965.91;4897598;29;20131;-61
2022/01/19 10:59:17;;;;;;;6.32;4.05;;;;;;;1.83;85.53;99965.28;4880750;29;20774;-57
2022/01/19 11:02:03;;;;;;;8.75;3.40;;;;;;;1.96;84.96;99959.41;4867074;29;20199;-60
2022/01/19 11:04:48;;;;;;;7.05;3.88;;;;;;;2.21;84.90;99932.78;4892845;29;20059;-61
2022/01/19 11:07:33;;;;;;;6.20;3.65;;;;;;;1.80;84.53;99943.41;4878649;29;20068;-55
2022/01/19 11:10:21;;;;;;;7.10;3.45;;;;;;;0.95;88.62;99940.03;4886655;29;20060;-58
2022/01/19 11:13:13;;;;;;;7.80;3.97;;;;;;;1.65;90.15;99945.75;4890156;29;20595;-58
2022/01/19 11:16:01;;;;;;;8.07;4.10;;;;;;;2.43;85.68;99949.69;4878248;29;20047;-52
2022/01/19 11:18:46;;;;;;;8.55;3.65;;;;;;;1.88;85.79;99944.41;4899462;29;20060;-64
2022/01/19 11:21:44;;;;;;;10.98;4.10;;;;;;;1.20;89.27;99937.94;4888467;29;20055;-57
2022/01/19 11:24:34;;;;;;;9.52;4.13;;;;;;;0.93;93.78;99936.50;4887796;29;20080;-56
2022/01/19 11:27:20;;;;;;;8.00;4.10;;;;;;;0.35;97.02;99936.97;4889706;29;20128;-63
2022/01/19 11:30:11;;;;;;;9.07;4.30;;;;;;;0.83;97.87;99931.94;4890645;29;20993;-54
2022/01/19 11:33:25;;;;;;;10.32;4.45;;;;;;;0.50;100.00;99933.81;4885652;29;20372;-57
2022/01/19 11:36:34;;;;;;;17.30;4.45;;;;;;;0.13;100.00;99924.28;4901659;29;20101;-59
2022/01/19 11:39:21;;;;;;;14.02;4.15;;;;;;;-0.51;100.00;99913.13;4875366;29;20099;-57
2022/01/19 11:42:07;;;;;;;16.55;3.75;;;;;;;-0.71;100.00;99906.53;4890277;29;20068;-56
2022/01/19 11:44:54;;;;;;;15.63;4.32;;;;;;;-0.66;100.00;99912.75;4890201;29;20088;-58
2022/01/19 11:47:43;;;;;;;12.07;3.83;;;;;;;-1.08;100.00;99911.56;4891044;29;20095;-63
2022/01/19 11:50:30;;;;;;;17.55;4.05;;;;;;;-1.65;100.00;99921.19;4890522;29;20082;-57
2022/01/19 11:53:16;;;;;;;9.45;3.47;;;;;;;-1.41;100.00;99921.91;4891820;29;20695;-69
2022/01/19 11:56:09;;;;;;;11.82;3.70;;;;;;;-0.96;100.00;99917.09;4874214;29;20576;-62
2022/01/19 11:59:09;;;;;;;9.93;3.53;;;;;;;-0.74;100.00;99906.44;4889984;29;20104;-57
2022/01/19 12:02:29;;;;;;;6.47;3.03;;;;;;;-0.85;100.00;99908.75;4886189;29;20047;-66
2022/01/19 12:05:26;;;;;;;7.97;3.40;;;;;;;-0.97;100.00;99902.34;4886770;29;20484;-57
2022/01/19 12:08:22;;;;;;;5.35;2.78;;;;;;;-1.18;100.00;99896.56;4889014;29;20108;-55
2022/01/19 12:11:16;;;;;;;7.57;3.08;;;;;;;-1.66;100.00;99897.72;4861415;29;20658;-66
2022/01/19 12:17:25;;;;;;;6.43;3.00;;;;;;;-1.57;100.00;99888.50;4890440;29;20119;-57
2022/01/19 12:20:50;;;;;;;8.60;2.83;;;;;;;-1.74;100.00;99896.63;4887745;29;20059;-60
2022/01/19 12:23:39;;;;;;;7.97;3.33;;;;;;;-2.35;100.00;99895.50;4888646;29;20056;-59
2022/01/19 12:26:24;;;;;;;12.50;3.10;;;;;;;-2.44;100.00;99883.13;4875122;29;20071;-58
2022/01/19 12:29:09;;;;;;;6.25;2.65;;;;;;;-2.51;100.00;99882.88;4887612;29;20564;-58
2022/01/19 12:31:53;;;;;;;6.00;2.75;;;;;;;-2.70;100.00;99890.84;4886633;29;20059;-58
2022/01/19 12:34:45;;;;;;;5.35;2.72;;;;;;;-2.88;100.00;99883.38;4888727;29;20551;-63
2022/01/19 12:37:37;;;;;;;8.43;3.30;;;;;;;-2.86;100.00;99884.28;4890155;29;20052;-64
2022/01/19 12:40:24;;;;;;;8.02;2.80;;;;;;;-2.96;100.00;99876.13;4882868;29;20052;-56
2022/01/19 12:43:47;;;;;;;8.35;3.20;;;;;;;-3.03;100.00;99874.16;4873690;29;20059;-68
2022/01/19 12:46:37;;;;;;;12.30;3.83;;;;;;;-2.87;100.00;99866.06;4849835;29;20537;-69
2022/01/19 12:49:32;;;;;;;10.80;3.45;;;;;;;-3.02;100.00;99882.00;4868240;29;20173;-68
2022/01/19 12:52:18;;;;;;;15.95;3.55;;;;;;;-2.98;100.00;99872.59;4854980;29;20467;-71
2022/01/19 12:55:32;;;;;;;14.60;4.13;;;;;;;-2.85;100.00;99867.88;4865469;29;20083;-66
2022/01/19 12:58:24;;;;;;;9.65;3.08;;;;;;;-3.05;100.00;99865.47;4854304;29;20563;-67
2022/01/19 13:01:11;;;;;;;8.77;3.55;;;;;;;-3.01;100.00;99869.91;4870082;29;20056;-62
2022/01/19 13:03:55;;;;;;;11.75;3.25;;;;;;;-3.02;100.00;99868.13;4864458;29;20195;-63
2022/01/19 13:06:44;;;;;;;8.50;3.40;;;;;;;-3.19;100.00;99867.56;4855556;29;20056;-69
2022/01/19 13:09:36;;;;;;;6.55;2.92;;;;;;;-2.91;100.00;99869.38;4855832;29;20097;-65
2022/01/19 13:12:38;;;;;;;12.63;3.65;;;;;;;-3.16;100.00;99869.38;4844710;29;20236;-57
2022/01/19 13:15:38;;;;;;;13.07;3.85;;;;;;;-3.17;100.00;99875.41;4868590;29;20092;-59
2022/01/19 13:18:36;;;;;;;9.75;3.38;;;;;;;-3.21;100.00;99876.97;4855843;29;20602;-59
2022/01/19 13:21:23;;;;;;;13.32;3.50;;;;;;;-3.29;100.00;99869.78;4886701;29;20078;-57
2022/01/19 13:24:17;;;;;;;10.27;3.50;;;;;;;-3.33;100.00;99848.03;4890347;29;20059;-58
2022/01/19 13:27:10;;;;;;;8.03;3.13;;;;;;;-3.29;100.00;99865.47;4882841;29;20068;-67
2022/01/19 13:29:54;;;;;;;6.10;2.80;;;;;;;-3.32;100.00;99867.94;4887478;29;20082;-58
2022/01/19 13:32:40;;;;;;;9.20;3.05;;;;;;;-3.52;100.00;99849.91;4890191;29;20085;-63
2022/01/19 13:35:29;;;;;;;8.15;3.00;;;;;;;-3.29;100.00;99860.28;4887356;29;20497;-57
2022/01/19 13:38:16;;;;;;;13.93;3.33;;;;;;;-3.48;100.00;99844.03;4875259;29;20055;-57
2022/01/19 13:41:09;;;;;;;9.07;3.50;;;;;;;-3.35;100.00;99859.19;4888874;29;20525;-59
2022/01/19 13:44:08;;;;;;;19.60;3.92;;;;;;;-3.38;100.00;99854.78;4890290;29;20425;-56
2022/01/19 13:47:27;;;;;;;8.48;2.97;;;;;;;-3.30;100.00;99858.50;4871573;29;20133;-65
2022/01/19 13:50:12;;;;;;;11.98;4.22;;;;;;;-3.20;100.00;99857.13;4894923;29;20131;-58
2022/01/19 13:53:00;;;;;;;10.88;4.18;;;;;;;-3.39;100.00;99844.34;4890754;29;20330;-56
2022/01/19 13:55:46;;;;;;;8.75;3.40;;;;;;;-3.20;100.00;99865.81;4880509;29;20059;-59
2022/01/19 13:58:39;;;;;;;9.40;3.92;;;;;;;-3.08;100.00;99860.16;4889117;29;20055;-64
2022/01/19 14:02:03;;;;;;;11.95;3.70;;;;;;;-3.28;100.00;99851.66;4889471;29;20168;-59
2022/01/19 14:04:54;;;;;;;14.02;4.22;;;;;;;-3.44;100.00;99838.97;4899259;29;20103;-59
2022/01/19 14:07:46;;;;;;;11.55;3.95;;;;;;;-3.49;100.00;99850.91;4890648;29;20183;-64
2022/01/19 14:10:42;;;;;;;10.65;4.35;;;;;;;-3.51;100.00;99846.50;4892387;29;20132;-57
2022/01/19 14:13:31;;;;;;;11.15;4.03;;;;;;;-3.50;100.00;99831.00;4891374;29;20060;-58
2022/01/19 14:16:23;;;;;;;10.18;3.80;;;;;;;-3.52;100.00;99845.59;4891855;29;20588;-63
2022/01/19 14:19:14;;;;;;;15.35;4.45;;;;;;;-3.63;100.00;99831.41;4891514;29;20083;-57
2022/01/19 14:22:10;;;;;;;11.32;3.60;;;;;;;-3.50;100.00;99833.59;4877900;29;20100;-57
2022/01/19 14:25:00;;;;;;;10.80;3.60;;;;;;;-3.69;100.00;99804.41;4865851;29;20055;-58
2022/01/19 14:27:58;;;;;;;11.30;3.50;;;;;;;-3.54;100.00;99823.94;4893167;29;20480;-61
2022/01/19 14:30:43;;;;;;;;;;;;;;;-3.50;100.00;99823.22;4873919;29;20145;-57
2022/01/19 14:33:29;;;;;;;13.88;3.88;;;;;;;-3.39;100.00;99828.78;4883956;29;20402;-61
2022/01/19 14:36:23;;;;;;;10.82;3.97;;;;;;;-3.21;100.00;99825.13;4891433;29;20059;-61
2022/01/19 14:39:07;;;;;;;12.57;3.75;;;;;;;-3.34;100.00;99811.69;4890249;29;20063;-59
2022/01/19 14:42:07;;;;;;;6.75;3.55;;;;;;;-3.34;100.00;99816.88;4891845;29;20111;-68
2022/01/19 14:45:02;;;;;;;8.57;3.67;;;;;;;-3.03;100.00;99815.41;4894144;29;20414;-61